Time;durP1;ratioP1;P1;durP2;ratioP2;P2;SDS_P1;SDS_P2;PMS_P1;PMS_P2;Temp;Humidity;BMP_temperature;BMP_pressure;BME280_temperature;BME280_humidity;BME280_pressure;Samples;Min_cycle;Max_cycle;Signal;HPM_P1;HPM_P2
2021/05/03 00:00:40;;;;;;;368.88;246.15;;;2.10;99.90;;;;;;5015477;28;20424;-62
2021/05/03 00:03:09;;;;;;;364.00;237.02;;;2.00;99.90;;;;;;5016856;28;20405;-61
2021/05/03 00:05:37;;;;;;;354.45;242.65;;;2.10;99.90;;;;;;5015961;28;20412;-61
2021/05/03 00:08:11;;;;;;;362.02;235.80;;;2.00;99.90;;;;;;5013081;28;20421;-62
2021/05/03 00:10:39;;;;;;;377.10;233.05;;;2.00;99.90;;;;;;5013291;28;20424;-61
2021/05/03 00:13:07;;;;;;;381.80;227.98;;;2.00;99.90;;;;;;5014540;28;20409;-64
2021/05/03 00:15:34;;;;;;;379.77;224.98;;;2.00;99.90;;;;;;5015917;28;20456;-61
2021/05/03 00:18:02;;;;;;;395.52;218.18;;;2.00;99.90;;;;;;5016828;28;20425;-62
2021/05/03 00:20:29;;;;;;;390.35;212.73;;;1.90;99.90;;;;;;5017151;28;20780;-62
2021/05/03 00:22:56;;;;;;;406.63;215.10;;;1.90;99.90;;;;;;4999776;28;20524;-61
2021/05/03 00:25:24;;;;;;;409.40;210.77;;;1.80;99.90;;;;;;5017047;28;20478;-61
2021/05/03 00:27:52;;;;;;;414.13;212.75;;;1.80;99.90;;;;;;5016775;28;20460;-62
2021/05/03 00:30:20;;;;;;;413.20;214.52;;;1.70;99.90;;;;;;5015710;28;20426;-61
2021/05/03 00:32:48;;;;;;;399.25;210.23;;;1.70;99.90;;;;;;5016998;28;20413;-62
2021/05/03 00:35:16;;;;;;;389.98;215.43;;;1.60;99.90;;;;;;5016199;28;20421;-63
2021/05/03 00:37:43;;;;;;;383.15;207.13;;;1.60;99.90;;;;;;5016887;28;20417;-61
2021/05/03 00:40:11;;;;;;;382.88;213.05;;;1.60;99.90;;;;;;5016454;28;20460;-62
2021/05/03 00:42:42;;;;;;;368.38;211.32;;;1.50;99.90;;;;;;5016936;28;20408;-61
2021/05/03 00:45:12;;;;;;;360.92;205.68;;;1.50;99.90;;;;;;5016751;28;20408;-64
2021/05/03 00:47:41;;;;;;;359.90;211.75;;;1.50;99.90;;;;;;5016988;28;20412;-63
2021/05/03 00:50:11;;;;;;;358.10;211.57;;;1.50;99.90;;;;;;5017089;28;20417;-63
2021/05/03 00:52:40;;;;;;;356.75;210.00;;;1.50;99.90;;;;;;5016862;28;20408;-61
2021/05/03 00:55:09;;;;;;;333.17;199.02;;;1.40;99.90;;;;;;5016217;28;20510;-62
2021/05/03 00:57:38;;;;;;;319.25;207.55;;;1.40;99.90;;;;;;5016858;28;20527;-64
2021/05/03 01:00:09;;;;;;;319.75;205.80;;;1.40;99.90;;;;;;5016320;28;20413;-62
2021/05/03 01:02:37;;;;;;;321.83;207.38;;;1.40;99.90;;;;;;5018282;28;20416;-60
2021/05/03 01:05:05;;;;;;;320.73;198.65;;;1.30;99.90;;;;;;4997499;28;20764;-62
2021/05/03 01:07:34;;;;;;;323.27;202.00;;;1.30;99.90;;;;;;5018075;28;20420;-62
2021/05/03 01:10:01;;;;;;;312.73;201.43;;;1.20;99.90;;;;;;5017875;28;20424;-60
2021/05/03 01:12:29;;;;;;;315.85;209.60;;;1.20;99.90;;;;;;5019837;28;20524;-64
2021/05/03 01:14:56;;;;;;;334.25;204.38;;;1.20;99.90;;;;;;5017945;28;20442;-61
2021/05/03 01:17:31;;;;;;;321.73;209.77;;;1.20;99.90;;;;;;5019363;28;20420;-60
2021/05/03 01:20:07;;;;;;;318.50;213.90;;;1.20;99.90;;;;;;5020341;28;20436;-60
2021/05/03 01:22:36;;;;;;;304.98;226.07;;;1.30;99.90;;;;;;5021021;28;20812;-63
2021/05/03 01:25:05;;;;;;;287.42;235.40;;;1.40;99.90;;;;;;5019053;28;20468;-60
2021/05/03 01:27:34;;;;;;;337.70;256.40;;;1.50;99.90;;;;;;5015666;28;20424;-60
2021/05/03 01:30:02;;;;;;;331.77;264.40;;;1.50;99.90;;;;;;5018834;28;20405;-60
2021/05/03 01:32:30;;;;;;;324.80;270.20;;;1.80;99.90;;;;;;4979880;28;20421;-63
2021/05/03 01:34:58;;;;;;;321.13;255.77;;;1.90;99.90;;;;;;4980148;28;20420;-60
2021/05/03 01:37:25;;;;;;;317.13;243.93;;;1.90;99.90;;;;;;4981867;28;20903;-65
2021/05/03 01:39:54;;;;;;;308.25;238.30;;;1.90;99.90;;;;;;4984759;28;20490;-60
2021/05/03 01:42:23;;;;;;;312.77;238.20;;;1.90;99.90;;;;;;4983629;28;20419;-61
2021/05/03 01:44:57;;;;;;;311.50;230.97;;;1.90;99.90;;;;;;4984473;28;20423;-64
2021/05/03 01:47:28;;;;;;;313.65;224.75;;;1.80;99.90;;;;;;5003103;28;20450;-63
2021/05/03 01:50:01;;;;;;;318.73;227.57;;;1.70;99.90;;;;;;5002499;28;20430;-61
2021/05/03 01:52:29;;;;;;;315.15;224.07;;;1.60;99.90;;;;;;5001923;28;20406;-61
2021/05/03 01:54:57;;;;;;;331.70;224.23;;;1.50;99.90;;;;;;5003784;28;20423;-61
2021/05/03 01:57:24;;;;;;;339.00;229.80;;;1.50;99.90;;;;;;5002617;28;20489;-61
2021/05/03 01:59:53;;;;;;;321.77;226.73;;;1.40;99.90;;;;;;5001663;28;20464;-61
2021/05/03 02:02:21;;;;;;;327.58;225.60;;;1.40;99.90;;;;;;5001290;28;20485;-61
2021/05/03 02:04:49;;;;;;;334.48;224.88;;;1.40;99.90;;;;;;5002865;28;20414;-61
2021/05/03 02:07:17;;;;;;;325.07;213.23;;;1.30;99.90;;;;;;5003480;28;20432;-63
2021/05/03 02:09:45;;;;;;;323.50;213.33;;;1.30;99.90;;;;;;5003601;28;20889;-61
2021/05/03 02:12:13;;;;;;;313.27;210.68;;;1.20;99.90;;;;;;5002691;28;20418;-60
2021/05/03 02:15:07;;;;;;;344.52;218.00;;;1.20;99.90;;;;;;5001374;28;20415;-61
2021/05/03 02:17:35;;;;;;;339.15;226.00;;;1.20;99.90;;;;;;5001166;28;20437;-61
2021/05/03 02:20:03;;;;;;;330.85;226.30;;;1.10;99.90;;;;;;5001895;28;20823;-61
2021/05/03 02:22:30;;;;;;;308.77;220.10;;;1.00;99.90;;;;;;5002333;28;20422;-61
2021/05/03 02:24:58;;;;;;;296.35;221.63;;;1.00;99.90;;;;;;5008857;28;20540;-62
2021/05/03 02:27:26;;;;;;;288.55;218.93;;;1.00;99.90;;;;;;5016328;28;20414;-62
2021/05/03 02:29:54;;;;;;;276.80;220.20;;;1.00;99.90;;;;;;5003485;28;20441;-61
2021/05/03 02:32:21;;;;;;;282.73;219.32;;;1.00;99.90;;;;;;5004870;28;20476;-61
2021/05/03 02:34:49;;;;;;;279.13;225.95;;;1.00;99.90;;;;;;5010774;28;20478;-61
2021/05/03 02:37:16;;;;;;;279.25;225.10;;;0.90;99.90;;;;;;5000949;28;20418;-61
2021/05/03 02:39:44;;;;;;;280.95;224.00;;;1.00;99.90;;;;;;5002290;28;20411;-61
2021/05/03 02:42:15;;;;;;;274.03;217.87;;;1.00;99.90;;;;;;5002640;28;20478;-61
2021/05/03 02:44:43;;;;;;;282.75;216.43;;;1.10;99.90;;;;;;5001011;28;20436;-62
2021/05/03 02:47:11;;;;;;;278.13;218.30;;;1.20;99.90;;;;;;5000353;28;20418;-61
2021/05/03 02:49:39;;;;;;;267.38;221.07;;;1.20;99.90;;;;;;5002135;28;20430;-61
2021/05/03 02:52:07;;;;;;;262.95;226.32;;;1.20;99.90;;;;;;5001728;28;20445;-61
2021/05/03 02:54:35;;;;;;;262.42;215.93;;;1.20;99.90;;;;;;4975316;28;760577;-61
2021/05/03 02:57:03;;;;;;;266.63;214.95;;;1.20;99.90;;;;;;5002955;28;20421;-61
2021/05/03 02:59:30;;;;;;;268.98;212.63;;;1.20;99.90;;;;;;5003093;28;20469;-61
2021/05/03 03:01:59;;;;;;;270.00;215.65;;;1.20;99.90;;;;;;4986689;28;20879;-61
2021/05/03 03:04:27;;;;;;;266.02;213.43;;;1.10;99.90;;;;;;4983039;28;20404;-60
2021/05/03 03:06:54;;;;;;;270.08;215.38;;;1.10;99.90;;;;;;4980958;28;20416;-61
2021/05/03 03:09:22;;;;;;;262.95;206.23;;;1.10;99.90;;;;;;4980754;28;20423;-63
2021/05/03 03:11:49;;;;;;;339.27;215.95;;;1.00;99.90;;;;;;4980941;28;20431;-61
2021/05/03 03:14:17;;;;;;;327.20;206.93;;;1.00;99.90;;;;;;4980452;28;20741;-61
2021/05/03 03:16:45;;;;;;;313.35;212.07;;;0.90;99.90;;;;;;4993002;28;20485;-62
2021/05/03 03:19:13;;;;;;;310.27;205.05;;;0.90;99.90;;;;;;5000590;28;20453;-61
2021/05/03 03:21:41;;;;;;;313.65;206.98;;;0.80;99.90;;;;;;4999870;28;20422;-61
2021/05/03 03:24:10;;;;;;;328.93;204.70;;;0.80;99.90;;;;;;5000312;28;20413;-60
2021/05/03 03:26:38;;;;;;;344.15;202.90;;;0.80;99.90;;;;;;5000796;28;20481;-61
2021/05/03 03:29:05;;;;;;;326.13;192.98;;;0.70;99.90;;;;;;4998413;28;20418;-60
2021/05/03 03:31:33;;;;;;;311.63;196.30;;;0.70;99.90;;;;;;4997349;28;20498;-61
2021/05/03 03:34:01;;;;;;;344.98;196.98;;;0.70;99.90;;;;;;5000355;28;20440;-60
2021/05/03 03:36:29;;;;;;;335.97;191.00;;;0.70;99.90;;;;;;4999520;28;20493;-60
2021/05/03 03:38:59;;;;;;;319.27;191.68;;;0.70;99.90;;;;;;5000434;28;20407;-61
2021/05/03 03:41:27;;;;;;;306.83;192.50;;;0.60;99.90;;;;;;5002531;28;20431;-61
2021/05/03 03:43:55;;;;;;;296.25;193.68;;;0.60;99.90;;;;;;5002373;28;20414;-63
2021/05/03 03:46:22;;;;;;;284.27;184.50;;;0.50;99.90;;;;;;5001268;28;20453;-62
2021/05/03 03:48:50;;;;;;;293.48;189.10;;;0.60;99.90;;;;;;5002769;28;20716;-61
2021/05/03 03:51:17;;;;;;;249.65;181.05;;;0.50;99.90;;;;;;5002338;28;20440;-63
2021/05/03 03:53:46;;;;;;;249.83;179.00;;;0.50;99.90;;;;;;5002186;28;20413;-61
2021/05/03 03:56:15;;;;;;;244.65;181.30;;;0.50;99.90;;;;;;5001673;28;20485;-63
2021/05/03 03:58:45;;;;;;;242.52;182.98;;;0.50;99.90;;;;;;5002625;28;20415;-61
2021/05/03 04:01:14;;;;;;;241.85;186.20;;;0.60;99.90;;;;;;4996888;28;20415;-60
2021/05/03 04:03:47;;;;;;;249.18;198.23;;;0.60;99.90;;;;;;5001037;28;20867;-61
2021/05/03 04:06:22;;;;;;;259.30;191.23;;;0.60;99.90;;;;;;4999068;28;20934;-61
2021/05/03 04:08:56;;;;;;;252.45;189.85;;;0.70;99.90;;;;;;4999232;28;20489;-63
2021/05/03 04:11:43;;;;;;;261.27;190.40;;;0.90;99.90;;;;;;4999017;28;20410;-61
2021/05/03 04:21:03;;;;;;;256.92;194.40;;;0.90;99.90;;;;;;4999315;28;20903;-61
2021/05/03 04:25:34;;;;;;;313.85;208.27;;;1.20;99.90;;;;;;4996562;28;20922;-61
2021/05/03 04:28:03;;;;;;;306.45;213.15;;;1.30;99.90;;;;;;4997724;28;20418;-61
2021/05/03 04:30:31;;;;;;;243.73;218.88;;;1.40;99.90;;;;;;4996466;28;20425;-61
2021/05/03 04:32:58;;;;;;;286.02;253.50;;;1.40;99.90;;;;;;4997707;28;20418;-61
2021/05/03 04:35:26;;;;;;;295.90;241.07;;;1.60;99.90;;;;;;4994957;28;20795;-61
2021/05/03 04:37:54;;;;;;;280.75;239.93;;;1.60;99.90;;;;;;4993008;28;20422;-61
2021/05/03 04:40:21;;;;;;;281.70;247.50;;;1.70;99.90;;;;;;4994506;28;20410;-61
2021/05/03 04:42:52;;;;;;;295.90;263.67;;;1.70;99.90;;;;;;4994498;28;20411;-63
2021/05/03 04:45:20;;;;;;;314.77;261.33;;;1.80;99.90;;;;;;4995156;28;20419;-61
2021/05/03 04:47:47;;;;;;;340.20;270.35;;;1.90;99.90;;;;;;4995488;28;20809;-61
2021/05/03 04:50:15;;;;;;;323.10;261.60;;;2.00;99.90;;;;;;4995208;28;20493;-61
2021/05/03 04:52:44;;;;;;;324.13;262.08;;;2.10;99.90;;;;;;4995482;28;20774;-60
2021/05/03 04:55:12;;;;;;;312.55;272.92;;;2.10;99.90;;;;;;4995699;28;20432;-62
2021/05/03 04:57:40;;;;;;;354.27;278.92;;;2.10;99.90;;;;;;4994988;28;20436;-61
2021/05/03 05:00:10;;;;;;;316.37;271.57;;;2.20;99.90;;;;;;4996717;28;20844;-62
2021/05/03 05:02:38;;;;;;;310.55;262.13;;;2.30;99.90;;;;;;4993924;28;20418;-62
2021/05/03 05:05:10;;;;;;;302.15;267.40;;;2.30;99.90;;;;;;4997374;28;20426;-61
2021/05/03 05:07:38;;;;;;;301.42;268.30;;;2.40;99.90;;;;;;4996640;28;20454;-64
2021/05/03 05:10:08;;;;;;;311.73;278.33;;;2.40;99.90;;;;;;4996767;28;20424;-64
2021/05/03 05:12:37;;;;;;;319.45;285.73;;;2.40;99.90;;;;;;4997490;28;20412;-62
2021/05/03 05:15:06;;;;;;;318.87;285.40;;;2.50;99.90;;;;;;4999372;28;20461;-62
2021/05/03 05:17:38;;;;;;;321.35;286.33;;;2.60;99.90;;;;;;4999779;28;20436;-62
2021/05/03 05:20:06;;;;;;;314.20;281.10;;;2.60;99.90;;;;;;5003558;28;20519;-62
2021/05/03 05:22:33;;;;;;;383.30;313.92;;;2.60;99.90;;;;;;5006665;28;20414;-61
2021/05/03 05:25:01;;;;;;;385.30;295.40;;;2.70;99.90;;;;;;5001308;28;20433;-62
2021/05/03 05:27:29;;;;;;;389.13;326.30;;;2.60;99.90;;;;;;5001151;28;20485;-62
2021/05/03 05:29:57;;;;;;;374.10;302.97;;;2.80;99.90;;;;;;5000851;28;20414;-61
2021/05/03 05:32:25;;;;;;;336.80;300.10;;;2.90;99.90;;;;;;5000179;28;20898;-61
2021/05/03 05:34:53;;;;;;;376.57;325.00;;;3.10;99.90;;;;;;5000505;28;20507;-61
2021/05/03 05:37:20;;;;;;;343.77;312.08;;;3.40;99.90;;;;;;5001518;28;20881;-65
2021/05/03 05:39:48;;;;;;;334.83;306.50;;;3.50;99.90;;;;;;5003412;28;20406;-60
2021/05/03 05:42:18;;;;;;;377.85;345.95;;;3.80;99.90;;;;;;4997852;28;20414;-62
2021/05/03 05:44:45;;;;;;;430.48;384.98;;;4.20;99.90;;;;;;5000341;28;20406;-63
2021/05/03 05:47:13;;;;;;;403.60;379.25;;;4.60;99.90;;;;;;5017400;28;20431;-60
2021/05/03 05:49:41;;;;;;;380.90;362.10;;;5.00;99.90;;;;;;5020366;28;20415;-60
2021/05/03 05:52:10;;;;;;;386.65;368.25;;;4.90;99.90;;;;;;5036227;28;20428;-60
2021/05/03 05:54:38;;;;;;;374.92;357.35;;;4.80;99.90;;;;;;5036210;28;20502;-62
2021/05/03 05:57:07;;;;;;;364.10;347.25;;;4.80;99.90;;;;;;5035772;28;20422;-62
2021/05/03 05:59:36;;;;;;;368.30;350.80;;;4.90;99.90;;;;;;5036384;28;20506;-62
2021/05/03 06:02:03;;;;;;;426.07;403.53;;;5.10;99.90;;;;;;5034950;28;20562;-62
2021/05/03 06:04:32;;;;;;;485.23;450.65;;;5.30;99.90;;;;;;5036204;28;20426;-62
2021/05/03 06:07:00;;;;;;;431.05;409.75;;;5.60;99.90;;;;;;5035936;28;20481;-63
2021/05/03 06:09:44;;;;;;;403.67;386.20;;;5.70;99.90;;;;;;5036830;28;20418;-61
2021/05/03 06:12:11;;;;;;;270.30;260.00;;;6.20;99.90;;;;;;5037904;28;20403;-60
2021/05/03 06:14:39;;;;;;;233.52;225.43;;;6.40;99.90;;;;;;5038725;28;20468;-60
2021/05/03 06:17:07;;;;;;;218.40;211.02;;;6.50;99.90;;;;;;5037553;28;20423;-63
2021/05/03 06:19:36;;;;;;;159.43;153.93;;;6.60;99.90;;;;;;5038661;28;20425;-61
2021/05/03 06:22:03;;;;;;;539.13;513.35;;;7.30;99.90;;;;;;5038460;28;20417;-61
2021/05/03 06:24:31;;;;;;;563.17;538.42;;;7.60;99.90;;;;;;5020197;28;20450;-61
2021/05/03 06:27:02;;;;;;;551.57;229.00;;;7.70;99.90;;;;;;5039125;28;20666;-61
2021/05/03 06:29:29;;;;;;;543.77;190.63;;;8.10;99.90;;;;;;5038905;28;20438;-61
2021/05/03 06:31:59;;;;;;;529.90;168.00;;;8.70;99.90;;;;;;5037893;28;20473;-60
2021/05/03 06:34:30;;;;;;;539.07;179.23;;;8.70;99.90;;;;;;5038325;28;20438;-61
2021/05/03 06:37:01;;;;;;;555.03;204.10;;;9.80;99.70;;;;;;5038370;28;20451;-65
2021/05/03 06:39:29;;;;;;;553.33;205.60;;;11.60;95.70;;;;;;5036996;28;20429;-61
2021/05/03 06:41:56;;;;;;;582.70;528.10;;;12.20;92.40;;;;;;5035293;28;20433;-61
2021/05/03 06:44:25;;;;;;;719.05;667.75;;;12.60;91.80;;;;;;5034517;28;20411;-60
2021/05/03 06:46:52;;;;;;;773.58;716.85;;;13.60;90.10;;;;;;5033529;28;20481;-61
2021/05/03 06:49:21;;;;;;;766.97;713.47;;;12.90;86.10;;;;;;5016399;28;20415;-61
2021/05/03 06:52:13;;;;;;;762.78;715.30;;;10.70;90.50;;;;;;5034603;28;20894;-61
2021/05/03 06:54:42;;;;;;;845.88;782.65;;;10.80;91.90;;;;;;5036980;28;20446;-61
2021/05/03 06:57:09;;;;;;;873.08;813.90;;;12.70;91.10;;;;;;5034819;28;20429;-61
2021/05/03 06:59:37;;;;;;;865.15;811.65;;;14.70;81.90;;;;;;5039398;28;20423;-60
2021/05/03 07:02:05;;;;;;;885.80;834.40;;;13.30;79.10;;;;;;5034090;28;20411;-60
2021/05/03 07:04:34;;;;;;;549.33;488.03;;;15.10;78.90;;;;;;5036174;28;20425;-60
2021/05/03 07:07:01;;;;;;;544.13;489.70;;;14.30;75.60;;;;;;5035599;28;20446;-63
2021/05/03 07:09:29;;;;;;;860.13;819.67;;;16.40;72.00;;;;;;5034596;28;20414;-61
2021/05/03 07:11:57;;;;;;;614.20;555.60;;;14.30;69.20;;;;;;5035819;28;20664;-60
2021/05/03 07:14:25;;;;;;;929.78;883.00;;;14.10;70.60;;;;;;5034580;28;20429;-60
2021/05/03 07:16:53;;;;;;;844.85;805.60;;;16.90;64.40;;;;;;5033818;28;20441;-60
2021/05/03 07:19:20;;;;;;;1023.72;969.03;;;18.50;59.60;;;;;;5035422;28;20410;-64
2021/05/03 07:21:48;;;;;;;1072.23;999.90;;;18.70;56.20;;;;;;5035734;28;20456;-59
2021/05/03 07:24:15;;;;;;;796.80;743.10;;;18.70;54.30;;;;;;5035771;28;20519;-60
2021/05/03 07:26:43;;;;;;;1092.07;999.90;;;20.10;55.80;;;;;;5034681;28;20477;-60
2021/05/03 07:29:10;;;;;;;1126.10;999.90;;;19.10;49.20;;;;;;5035161;28;20454;-66
2021/05/03 07:31:38;;;;;;;1019.58;967.47;;;18.10;51.50;;;;;;5033761;28;20415;-61
2021/05/03 07:34:06;;;;;;;950.70;898.97;;;17.90;54.50;;;;;;5034202;28;20411;-60
2021/05/03 07:36:34;;;;;;;791.90;750.75;;;20.00;51.90;;;;;;5034238;28;20426;-61
2021/05/03 07:39:04;;;;;;;238.63;230.63;;;20.80;47.00;;;;;;5017479;28;20397;-62
2021/05/03 07:41:32;;;;;;;525.97;502.40;;;20.40;46.40;;;;;;5034641;28;20903;-61
2021/05/03 07:43:59;;;;;;;66.70;64.22;;;20.80;46.10;;;;;;5034294;28;20970;-61
2021/05/03 07:46:28;;;;;;;6.30;5.47;;;21.10;46.20;;;;;;5032934;28;20415;-59
2021/05/03 07:48:57;;;;;;;5.40;4.90;;;20.60;45.90;;;;;;5033432;28;20431;-60
2021/05/03 07:51:25;;;;;;;8.25;4.97;;;19.90;45.00;;;;;;5015903;28;20419;-60
2021/05/03 07:53:54;;;;;;;5.57;5.00;;;19.40;46.10;;;;;;5033918;28;20810;-61
2021/05/03 07:56:54;;;;;;;7.38;5.15;;;19.70;46.30;;;;;;5033421;28;20480;-61
2021/05/03 07:59:22;;;;;;;5.90;4.60;;;18.80;46.90;;;;;;5033714;28;20475;-60
2021/05/03 08:01:50;;;;;;;5.88;5.07;;;18.00;48.90;;;;;;5032128;28;20418;-60
2021/05/03 08:04:18;;;;;;;5.00;4.50;;;18.30;48.80;;;;;;5034904;28;20419;-63
2021/05/03 08:06:47;;;;;;;5.90;4.97;;;17.30;49.40;;;;;;5016420;28;20423;-62
2021/05/03 08:09:14;;;;;;;6.35;4.70;;;15.30;52.40;;;;;;5034714;28;20721;-63
2021/05/03 08:11:44;;;;;;;676.63;608.63;;;15.80;54.60;;;;;;5035614;28;20104;-63
2021/05/03 08:14:15;;;;;;;637.60;579.10;;;16.90;51.70;;;;;;5035461;28;20419;-60
2021/05/03 08:16:43;;;;;;;916.20;869.25;;;15.00;51.70;;;;;;5033312;28;20416;-60
2021/05/03 08:19:12;;;;;;;927.28;874.67;;;15.30;55.20;;;;;;5033792;28;20814;-65
2021/05/03 08:21:54;;;;;;;962.67;895.58;;;14.40;56.60;;;;;;5032517;28;20415;-63
2021/05/03 08:24:22;;;;;;;951.78;883.95;;;13.10;59.10;;;;;;5032665;28;20961;-60
2021/05/03 08:26:49;;;;;;;880.65;830.85;;;13.50;60.90;;;;;;5015103;28;20461;-61
2021/05/03 08:29:16;;;;;;;895.70;855.10;;;16.50;54.30;;;;;;5033412;28;20543;-60
2021/05/03 08:31:44;;;;;;;835.35;798.20;;;17.30;51.80;;;;;;5032598;28;20407;-60
2021/05/03 08:34:12;;;;;;;881.10;828.33;;;18.10;50.20;;;;;;5033449;28;20431;-60
2021/05/03 08:36:39;;;;;;;578.58;555.63;;;16.10;52.30;;;;;;5033271;28;20450;-60
2021/05/03 08:39:12;;;;;;;586.70;562.55;;;17.10;53.20;;;;;;5033087;28;20933;-62
2021/05/03 08:41:41;;;;;;;414.03;398.97;;;16.80;51.20;;;;;;5033418;28;20805;-62
2021/05/03 08:44:08;;;;;;;385.87;372.33;;;16.80;52.40;;;;;;5033167;28;20454;-60
2021/05/03 08:46:40;;;;;;;234.73;227.63;;;16.30;53.30;;;;;;5032340;28;20426;-60
2021/05/03 08:49:44;;;;;;;344.65;333.00;;;16.30;52.90;;;;;;5033202;28;20442;-60
2021/05/03 08:52:15;;;;;;;958.85;911.65;;;19.20;49.10;;;;;;5033297;28;20575;-60
2021/05/03 08:55:35;;;;;;;1129.00;999.90;;;21.40;44.40;;;;;;5008644;28;20937;-59
2021/05/03 08:58:04;;;;;;;1094.38;999.90;;;21.90;42.30;;;;;;5013404;28;20618;-60
2021/05/03 09:00:31;;;;;;;1045.75;991.78;;;21.30;43.10;;;;;;5009305;28;20418;-60
2021/05/03 09:03:01;;;;;;;636.13;607.15;;;21.40;41.90;;;;;;4993832;28;20547;-59
2021/05/03 09:05:31;;;;;;;101.60;98.57;;;18.70;44.70;;;;;;4993662;28;20430;-60
2021/05/03 09:07:58;;;;;;;41.72;40.13;;;17.80;47.60;;;;;;4993932;28;20427;-61
2021/05/03 09:10:26;;;;;;;1029.82;973.63;;;18.20;48.20;;;;;;4993059;28;20418;-59
2021/05/03 09:12:53;;;;;;;1051.50;996.15;;;21.30;44.30;;;;;;4993994;28;20903;-59
2021/05/03 09:15:24;;;;;;;1026.20;969.65;;;22.20;40.30;;;;;;4993185;28;20438;-58
2021/05/03 09:17:52;;;;;;;226.40;219.37;;;20.10;41.90;;;;;;4992618;28;20902;-60
2021/05/03 09:20:21;;;;;;;375.08;361.40;;;17.10;46.60;;;;;;4993672;28;20838;-66
2021/05/03 09:22:55;;;;;;;732.87;700.10;;;17.10;48.30;;;;;;4994246;28;20414;-62
2021/05/03 09:25:27;;;;;;;916.70;873.25;;;14.90;51.30;;;;;;4994008;28;20418;-61
2021/05/03 09:28:09;;;;;;;697.17;667.87;;;13.50;54.30;;;;;;4993346;28;20414;-61
2021/05/03 09:30:41;;;;;;;346.92;335.38;;;12.70;57.20;;;;;;4991515;28;20409;-61
2021/05/03 09:33:25;;;;;;;312.63;302.60;;;12.20;59.10;;;;;;4994204;28;20422;-60
2021/05/03 09:35:55;;;;;;;392.50;378.67;;;12.20;60.60;;;;;;4994334;28;20414;-60
2021/05/03 09:38:38;;;;;;;677.22;648.97;;;12.90;61.20;;;;;;4993968;28;20427;-60
2021/05/03 09:41:18;;;;;;;401.52;387.35;;;13.30;59.40;;;;;;4993011;28;20430;-60
2021/05/03 09:43:47;;;;;;;249.23;241.40;;;13.70;59.10;;;;;;4992915;28;20407;-59
2021/05/03 09:46:36;;;;;;;11.57;10.55;;;14.60;55.90;;;;;;4992128;28;20469;-60
2021/05/03 09:49:08;;;;;;;334.63;322.73;;;16.30;54.90;;;;;;4993242;28;20466;-62
2021/05/03 09:52:01;;;;;;;6.80;6.00;;;18.70;49.90;;;;;;4991799;28;20418;-61
2021/05/03 09:54:29;;;;;;;7.90;7.30;;;18.20;47.80;;;;;;4993222;28;20446;-59
2021/05/03 09:57:01;;;;;;;7.00;6.40;;;18.00;48.30;;;;;;4991894;28;20457;-60
2021/05/03 09:59:33;;;;;;;8.77;7.25;;;17.50;49.90;;;;;;4995199;28;20422;-60
2021/05/03 10:05:51;;;;;;;146.55;141.88;;;20.00;45.20;;;;;;4996382;28;20487;-62
2021/05/03 10:08:19;;;;;;;7.55;6.93;;;19.70;43.30;;;;;;4997037;28;20422;-60
2021/05/03 10:10:49;;;;;;;919.22;871.13;;;20.20;44.80;;;;;;4997469;28;20478;-60
2021/05/03 10:13:17;;;;;;;446.48;428.02;;;20.80;45.00;;;;;;4997060;28;20977;-60
2021/05/03 10:15:45;;;;;;;254.63;246.23;;;20.70;40.80;;;;;;4995455;28;20490;-59
2021/05/03 10:18:17;;;;;;;573.45;547.20;;;20.40;41.90;;;;;;4997078;28;20425;-59
2021/05/03 10:20:46;;;;;;;405.90;389.73;;;19.50;42.70;;;;;;4997474;28;20973;-59
2021/05/03 10:23:15;;;;;;;92.03;89.03;;;19.60;44.00;;;;;;4997257;28;20421;-64
2021/05/03 10:25:43;;;;;;;28.73;27.52;;;18.70;44.90;;;;;;4995864;28;20418;-60
2021/05/03 10:28:11;;;;;;;16.88;16.08;;;18.00;45.20;;;;;;4995487;28;20425;-61
2021/05/03 10:30:43;;;;;;;6.63;6.03;;;16.40;47.80;;;;;;4995743;28;20407;-64
2021/05/03 10:33:12;;;;;;;26.92;25.83;;;14.70;50.80;;;;;;4994700;28;20411;-60
2021/05/03 10:35:44;;;;;;;296.80;286.83;;;13.50;54.30;;;;;;4996081;28;20420;-63
2021/05/03 10:38:33;;;;;;;332.55;321.05;;;12.80;57.90;;;;;;4995848;28;20910;-61
2021/05/03 10:41:02;;;;;;;87.37;84.67;;;12.70;59.90;;;;;;4996184;28;20453;-60
2021/05/03 10:43:42;;;;;;;117.47;113.97;;;12.50;61.30;;;;;;4997841;28;20423;-62
2021/05/03 10:49:01;;;;;;;5.40;4.90;;;14.20;56.10;;;;;;4996067;28;20817;-60
2021/05/03 10:51:50;;;;;;;70.10;67.57;;;15.50;54.00;;;;;;4996731;28;20422;-60
2021/05/03 10:54:51;;;;;;;280.35;270.80;;;17.10;51.10;;;;;;4996588;28;20421;-61
2021/05/03 10:57:38;;;;;;;507.65;485.55;;;18.70;47.90;;;;;;5010309;28;20428;-60
2021/05/03 11:00:29;;;;;;;265.38;256.15;;;20.20;43.20;;;;;;5016352;28;20427;-59
2021/05/03 11:03:42;;;;;;;333.50;321.20;;;21.60;42.30;;;;;;5016849;28;20443;-60
2021/05/03 11:06:09;;;;;;;38.57;36.97;;;20.00;42.00;;;;;;5016190;28;20789;-60
2021/05/03 11:08:38;;;;;;;244.88;236.65;;;19.70;43.20;;;;;;5016822;28;20432;-60
2021/05/03 11:11:12;;;;;;;493.45;472.30;;;20.00;42.90;;;;;;5015090;28;20417;-61
2021/05/03 11:13:57;;;;;;;376.73;362.20;;;16.80;47.00;;;;;;4998493;28;20448;-60
2021/05/03 11:16:47;;;;;;;282.38;272.77;;;17.80;47.30;;;;;;5014678;28;20516;-60
2021/05/03 11:19:51;;;;;;;36.33;35.05;;;17.50;46.90;;;;;;5014608;28;20808;-60
2021/05/03 11:22:21;;;;;;;6.30;5.70;;;16.60;49.30;;;;;;4993667;28;20982;-63
2021/05/03 11:25:19;;;;;;;248.52;239.30;;;16.90;49.50;;;;;;5014695;28;20420;-63
2021/05/03 11:27:56;;;;;;;12.10;11.40;;;15.20;50.10;;;;;;5015874;28;20413;-61
2021/05/03 11:30:29;;;;;;;13.43;12.52;;;16.20;51.10;;;;;;5014430;28;20475;-60
2021/05/03 11:33:01;;;;;;;7.07;6.38;;;16.70;50.90;;;;;;4997564;28;20420;-60
2021/05/03 11:35:35;;;;;;;7.68;5.90;;;15.70;52.30;;;;;;5015697;28;20499;-61
2021/05/03 11:38:10;;;;;;;5.30;4.80;;;15.60;52.80;;;;;;5014647;28;20504;-63
2021/05/03 11:40:53;;;;;;;6.45;5.32;;;14.80;53.10;;;;;;5014727;28;20417;-62
2021/05/03 11:46:25;;;;;;;5.25;4.75;;;15.00;54.00;;;;;;5013064;28;20416;-61
2021/05/03 11:48:58;;;;;;;6.63;5.45;;;15.80;52.90;;;;;;5014469;28;20413;-60
2021/05/03 11:51:26;;;;;;;30.58;29.45;;;15.20;51.50;;;;;;5014861;28;20901;-61
2021/05/03 11:53:54;;;;;;;4.65;4.25;;;16.20;48.70;;;;;;5014530;28;20420;-60
2021/05/03 11:56:25;;;;;;;4.38;3.97;;;15.90;46.70;;;;;;5014178;28;20451;-61
2021/05/03 11:59:17;;;;;;;3.50;3.20;;;15.70;46.10;;;;;;4997025;28;20432;-60
2021/05/03 12:02:01;;;;;;;;;;;15.70;47.30;;;;;;5014845;28;20423;-60
2021/05/03 12:04:34;;;;;;;;;;;15.40;49.10;;;;;;5016017;28;19921;-61
2021/05/03 12:07:10;;;;;;;;;;;15.30;50.60;;;;;;5015590;28;20293;-62
2021/05/03 12:09:38;;;;;;;;;;;15.80;50.10;;;;;;5015844;28;19921;-60
2021/05/03 12:12:07;;;;;;;6.28;4.90;;;16.70;48.60;;;;;;4996745;28;20423;-60
2021/05/03 12:14:43;;;;;;;408.58;392.35;;;15.40;50.20;;;;;;5014385;28;20437;-63
2021/05/03 12:17:23;;;;;;;56.80;54.80;;;16.70;49.40;;;;;;5012636;28;20412;-60
2021/05/03 12:19:52;;;;;;;14.88;14.27;;;17.20;45.20;;;;;;5013871;28;20920;-61
2021/05/03 12:22:21;;;;;;;6.63;5.25;;;17.10;44.80;;;;;;5014035;28;20508;-60
2021/05/03 12:25:13;;;;;;;237.50;230.00;;;17.40;45.10;;;;;;5013854;28;20409;-60
2021/05/03 12:27:41;;;;;;;116.32;112.72;;;17.90;44.00;;;;;;5013814;28;20413;-61
2021/05/03 12:30:10;;;;;;;17.77;16.98;;;16.50;44.20;;;;;;5014148;28;20929;-60
2021/05/03 12:32:41;;;;;;;11.10;10.40;;;16.50;46.20;;;;;;5013577;28;20769;-60
2021/05/03 12:35:12;;;;;;;373.52;359.95;;;13.80;45.00;;;;;;5013130;28;20490;-61
2021/05/03 12:37:40;;;;;;;5.00;4.50;;;13.80;48.80;;;;;;5013197;28;20424;-60
2021/05/03 12:40:11;;;;;;;5.53;5.03;;;15.20;46.80;;;;;;5013580;28;20444;-63
2021/05/03 12:42:45;;;;;;;6.78;6.28;;;15.20;47.00;;;;;;5013605;28;20722;-61
2021/05/03 12:45:29;;;;;;;31.60;30.40;;;14.10;46.40;;;;;;5012773;28;20423;-61
2021/05/03 12:48:10;;;;;;;529.50;507.98;;;14.60;48.90;;;;;;5012525;28;20413;-61
2021/05/03 12:51:40;;;;;;;359.98;347.45;;;14.40;49.60;;;;;;5012324;28;20432;-61
2021/05/03 12:54:15;;;;;;;44.75;42.83;;;15.30;50.40;;;;;;5012699;28;20849;-60
2021/05/03 12:56:57;;;;;;;123.75;119.97;;;15.80;49.10;;;;;;5013343;28;20456;-60